sensor_id;sensor_type;location;lat;lon;timestamp;pressure;altitude;pressure_sealevel;temperature;humidity
49311;BME280;35177;45.900;5.946;2022-12-18T00:00:39;98477.47;;;-0.06;100.00
49311;BME280;35177;45.900;5.946;2022-12-18T00:03:04;98482.13;;;-0.07;100.00
49311;BME280;35177;45.900;5.946;2022-12-18T00:05:29;98481.44;;;-0.02;100.00
49311;BME280;35177;45.900;5.946;2022-12-18T00:07:55;98480.41;;;-0.01;100.00
49311;BME280;35177;45.900;5.946;2022-12-18T00:10:20;98481.28;;;-0.07;100.00
49311;BME280;35177;45.900;5.946;2022-12-18T00:12:45;98492.47;;;-0.15;100.00
49311;BME280;35177;45.900;5.946;2022-12-18T00:15:11;98487.25;;;-0.17;100.00
49311;BME280;35177;45.900;5.946;2022-12-18T00:17:36;98484.97;;;-0.20;100.00
49311;BME280;35177;45.900;5.946;2022-12-18T00:20:01;98484.06;;;-0.14;100.00
49311;BME280;35177;45.900;5.946;2022-12-18T00:22:27;98481.97;;;-0.12;100.00
49311;BME280;35177;45.900;5.946;2022-12-18T00:24:52;98482.56;;;-0.10;100.00
49311;BME280;35177;45.900;5.946;2022-12-18T00:27:17;98494.75;;;-0.12;100.00
49311;BME280;35177;45.900;5.946;2022-12-18T00:29:43;98491.81;;;-0.11;100.00
49311;BME280;35177;45.900;5.946;2022-12-18T00:32:08;98488.91;;;-0.16;100.00
49311;BME280;35177;45.900;5.946;2022-12-18T00:34:33;98487.81;;;-0.08;100.00
49311;BME280;35177;45.900;5.946;2022-12-18T00:36:58;98480.81;;;-0.04;100.00
49311;BME280;35177;45.900;5.946;2022-12-18T00:39:24;98486.44;;;0.01;100.00
49311;BME280;35177;45.900;5.946;2022-12-18T00:41:49;98488.38;;;-0.06;100.00
49311;BME280;35177;45.900;5.946;2022-12-18T00:44:33;98485.47;;;-0.05;100.00
49311;BME280;35177;45.900;5.946;2022-12-18T00:46:58;98485.47;;;-0.05;100.00
49311;BME280;35177;45.900;5.946;2022-12-18T00:49:23;98487.97;;;-0.03;100.00
49311;BME280;35177;45.900;5.946;2022-12-18T00:51:49;98487.34;;;-0.05;100.00
49311;BME280;35177;45.900;5.946;2022-12-18T00:54:15;98495.91;;;-0.02;100.00
49311;BME280;35177;45.900;5.946;2022-12-18T00:56:40;98493.66;;;-0.05;100.00
49311;BME280;35177;45.900;5.946;2022-12-18T00:59:06;98496.22;;;-0.10;100.00
49311;BME280;35177;45.900;5.946;2022-12-18T01:01:31;98499.53;;;-0.08;100.00
49311;BME280;35177;45.900;5.946;2022-12-18T01:03:57;98498.94;;;-0.10;100.00
49311;BME280;35177;45.900;5.946;2022-12-18T01:06:22;98506.94;;;-0.15;100.00
49311;BME280;35177;45.900;5.946;2022-12-18T01:08:48;98502.94;;;-0.12;100.00
49311;BME280;35177;45.900;5.946;2022-12-18T01:11:16;98500.38;;;-0.07;100.00
49311;BME280;35177;45.900;5.946;2022-12-18T01:13:41;98504.94;;;-0.01;100.00
49311;BME280;35177;45.900;5.946;2022-12-18T01:16:07;98506.22;;;-0.04;100.00
49311;BME280;35177;45.900;5.946;2022-12-18T01:18:34;98512.50;;;-0.03;100.00
49311;BME280;35177;45.900;5.946;2022-12-18T01:20:59;98510.00;;;-0.05;100.00
49311;BME280;35177;45.900;5.946;2022-12-18T01:23:25;98517.31;;;0.02;100.00
49311;BME280;35177;45.900;5.946;2022-12-18T01:25:51;98515.69;;;-0.06;100.00
49311;BME280;35177;45.900;5.946;2022-12-18T01:28:16;98516.75;;;-0.07;100.00
49311;BME280;35177;45.900;5.946;2022-12-18T01:30:41;98523.03;;;-0.07;100.00
49311;BME280;35177;45.900;5.946;2022-12-18T01:33:07;98520.59;;;-0.15;100.00
49311;BME280;35177;45.900;5.946;2022-12-18T01:35:32;98515.34;;;-0.17;100.00
49311;BME280;35177;45.900;5.946;2022-12-18T01:37:57;98522.53;;;-0.22;100.00
49311;BME280;35177;45.900;5.946;2022-12-18T01:40:23;98529.06;;;-0.23;100.00
49311;BME280;35177;45.900;5.946;2022-12-18T01:42:51;98530.72;;;-0.22;100.00
49311;BME280;35177;45.900;5.946;2022-12-18T01:47:59;98524.16;;;-0.14;100.00
49311;BME280;35177;45.900;5.946;2022-12-18T01:50:34;98532.53;;;-0.16;100.00
49311;BME280;35177;45.900;5.946;2022-12-18T01:53:06;98539.25;;;-0.12;100.00
49311;BME280;35177;45.900;5.946;2022-12-18T01:55:42;98545.09;;;-0.08;100.00
49311;BME280;35177;45.900;5.946;2022-12-18T01:58:08;98541.50;;;-0.09;100.00
49311;BME280;35177;45.900;5.946;2022-12-18T02:00:33;98540.13;;;-0.18;100.00
49311;BME280;35177;45.900;5.946;2022-12-18T02:02:58;98539.69;;;-0.15;100.00
49311;BME280;35177;45.900;5.946;2022-12-18T02:11:10;98548.22;;;-0.05;100.00
49311;BME280;35177;45.900;5.946;2022-12-18T02:18:45;98547.16;;;-0.04;100.00
49311;BME280;35177;45.900;5.946;2022-12-18T02:28:43;98555.56;;;-0.05;100.00
49311;BME280;35177;45.900;5.946;2022-12-18T02:31:13;98564.34;;;-0.03;100.00
49311;BME280;35177;45.900;5.946;2022-12-18T02:33:39;98570.22;;;0.01;100.00
49311;BME280;35177;45.900;5.946;2022-12-18T02:36:05;98565.56;;;0.01;100.00
49311;BME280;35177;45.900;5.946;2022-12-18T02:38:32;98563.06;;;-0.01;100.00
49311;BME280;35177;45.900;5.946;2022-12-18T02:40:58;98558.84;;;0.04;100.00
49311;BME280;35177;45.900;5.946;2022-12-18T02:43:24;98563.06;;;-0.01;100.00
49311;BME280;35177;45.900;5.946;2022-12-18T02:45:54;98569.38;;;0.00;100.00
49311;BME280;35177;45.900;5.946;2022-12-18T02:48:22;98563.47;;;0.03;100.00
49311;BME280;35177;45.900;5.946;2022-12-18T02:50:54;98565.56;;;0.01;100.00
49311;BME280;35177;45.900;5.946;2022-12-18T02:53:45;98573.56;;;0.03;100.00
49311;BME280;35177;45.900;5.946;2022-12-18T02:56:23;98573.56;;;0.03;100.00
49311;BME280;35177;45.900;5.946;2022-12-18T02:59:02;98574.53;;;0.08;100.00
49311;BME280;35177;45.900;5.946;2022-12-18T03:01:34;98573.09;;;0.06;100.00
49311;BME280;35177;45.900;5.946;2022-12-18T03:04:02;98577.50;;;0.07;100.00
49311;BME280;35177;45.900;5.946;2022-12-18T03:06:30;98578.13;;;0.09;100.00
49311;BME280;35177;45.900;5.946;2022-12-18T03:09:01;98574.31;;;0.10;100.00
49311;BME280;35177;45.900;5.946;2022-12-18T03:11:28;98576.22;;;0.09;100.00
49311;BME280;35177;45.900;5.946;2022-12-18T03:14:15;98584.41;;;0.09;100.00
49311;BME280;35177;45.900;5.946;2022-12-18T03:16:42;98588.66;;;0.05;100.00
49311;BME280;35177;45.900;5.946;2022-12-18T03:19:14;98577.94;;;0.04;100.00
49311;BME280;35177;45.900;5.946;2022-12-18T03:21:42;98584.00;;;0.06;100.00
49311;BME280;35177;45.900;5.946;2022-12-18T03:24:09;98581.06;;;0.07;100.00
49311;BME280;35177;45.900;5.946;2022-12-18T03:26:36;98579.41;;;0.06;100.00
49311;BME280;35177;45.900;5.946;2022-12-18T03:31:51;98580.50;;;-0.02;100.00
49311;BME280;35177;45.900;5.946;2022-12-18T03:34:23;98590.44;;;-0.07;100.00
49311;BME280;35177;45.900;5.946;2022-12-18T03:36:51;98592.31;;;-0.08;100.00
49311;BME280;35177;45.900;5.946;2022-12-18T03:39:16;98588.25;;;0.02;100.00
49311;BME280;35177;45.900;5.946;2022-12-18T03:41:52;98579.84;;;0.03;100.00
49311;BME280;35177;45.900;5.946;2022-12-18T03:44:21;98585.28;;;0.03;100.00
49311;BME280;35177;45.900;5.946;2022-12-18T03:52:17;98591.56;;;0.04;100.00
49311;BME280;35177;45.900;5.946;2022-12-18T03:54:45;98590.38;;;-0.01;100.00
49311;BME280;35177;45.900;5.946;2022-12-18T03:57:14;98592.28;;;-0.01;100.00
49311;BME280;35177;45.900;5.946;2022-12-18T03:59:41;98593.31;;;-0.02;100.00
49311;BME280;35177;45.900;5.946;2022-12-18T04:02:08;98588.91;;;-0.03;100.00
49311;BME280;35177;45.900;5.946;2022-12-18T04:04:34;98591.41;;;-0.02;100.00
49311;BME280;35177;45.900;5.946;2022-12-18T04:07:00;98597.72;;;-0.01;100.00
49311;BME280;35177;45.900;5.946;2022-12-18T04:09:26;98596.28;;;-0.04;100.00
49311;BME280;35177;45.900;5.946;2022-12-18T04:11:52;98604.63;;;0.02;100.00
49311;BME280;35177;45.900;5.946;2022-12-18T04:14:17;98605.06;;;-0.02;100.00
49311;BME280;35177;45.900;5.946;2022-12-18T04:16:43;98602.31;;;-0.02;100.00
49311;BME280;35177;45.900;5.946;2022-12-18T04:19:08;98604.84;;;0.00;100.00
49311;BME280;35177;45.900;5.946;2022-12-18T04:21:33;98603.38;;;-0.03;100.00
49311;BME280;35177;45.900;5.946;2022-12-18T04:23:59;98611.38;;;-0.01;100.00
49311;BME280;35177;45.900;5.946;2022-12-18T04:26:24;98613.03;;;0.00;100.00
49311;BME280;35177;45.900;5.946;2022-12-18T04:28:49;98616.75;;;0.06;100.00
49311;BME280;35177;45.900;5.946;2022-12-18T04:31:14;98619.31;;;0.01;100.00
49311;BME280;35177;45.900;5.946;2022-12-18T04:33:40;98624.38;;;-0.03;100.00
49311;BME280;35177;45.900;5.946;2022-12-18T04:36:05;98633.84;;;-0.06;100.00
49311;BME280;35177;45.900;5.946;2022-12-18T04:38:31;98642.44;;;-0.02;100.00
49311;BME280;35177;45.900;5.946;2022-12-18T04:40:56;98633.63;;;-0.04;100.00
49311;BME280;35177;45.900;5.946;2022-12-18T04:43:21;98634.25;;;-0.02;100.00
49311;BME280;35177;45.900;5.946;2022-12-18T04:45:47;98639.47;;;-0.01;100.00
49311;BME280;35177;45.900;5.946;2022-12-18T04:48:12;98641.31;;;-0.26;100.00
49311;BME280;35177;45.900;5.946;2022-12-18T04:50:37;98642.19;;;-0.26;100.00
49311;BME280;35177;45.900;5.946;2022-12-18T04:53:03;98640.84;;;-0.17;100.00
49311;BME280;35177;45.900;5.946;2022-12-18T04:55:28;98641.00;;;-0.11;100.00
49311;BME280;35177;45.900;5.946;2022-12-18T04:57:53;98637.47;;;-0.12;100.00
49311;BME280;35177;45.900;5.946;2022-12-18T05:00:19;98640.63;;;-0.15;100.00
49311;BME280;35177;45.900;5.946;2022-12-18T05:02:44;98638.50;;;-0.13;100.00
49311;BME280;35177;45.900;5.946;2022-12-18T05:05:09;98633.69;;;-0.11;100.00
49311;BME280;35177;45.900;5.946;2022-12-18T05:07:35;98640.38;;;-0.07;100.00
49311;BME280;35177;45.900;5.946;2022-12-18T05:10:00;98648.53;;;-0.07;100.00
49311;BME280;35177;45.900;5.946;2022-12-18T05:12:25;98641.59;;;-0.03;100.00
49311;BME280;35177;45.900;5.946;2022-12-18T05:14:51;98644.13;;;-0.01;100.00
49311;BME280;35177;45.900;5.946;2022-12-18T05:17:16;98647.44;;;0.01;100.00
49311;BME280;35177;45.900;5.946;2022-12-18T05:19:42;98650.00;;;-0.04;100.00
49311;BME280;35177;45.900;5.946;2022-12-18T05:22:07;98657.97;;;-0.03;100.00
49311;BME280;35177;45.900;5.946;2022-12-18T05:24:33;98661.53;;;-0.02;100.00
49311;BME280;35177;45.900;5.946;2022-12-18T05:26:58;98662.59;;;-0.03;100.00
49311;BME280;35177;45.900;5.946;2022-12-18T05:29:24;98663.88;;;-0.06;100.00
49311;BME280;35177;45.900;5.946;2022-12-18T05:31:49;98670.16;;;-0.05;100.00
49311;BME280;35177;45.900;5.946;2022-12-18T05:34:14;98656.50;;;-0.05;100.00
49311;BME280;35177;45.900;5.946;2022-12-18T05:36:40;98661.13;;;-0.06;100.00
49311;BME280;35177;45.900;5.946;2022-12-18T05:39:05;98660.91;;;-0.04;100.00
49311;BME280;35177;45.900;5.946;2022-12-18T05:41:31;98656.72;;;-0.07;100.00
49311;BME280;35177;45.900;5.946;2022-12-18T05:43:56;98659.63;;;-0.02;100.00
49311;BME280;35177;45.900;5.946;2022-12-18T05:46:21;98666.53;;;0.01;100.00
49311;BME280;35177;45.900;5.946;2022-12-18T05:48:47;98664.66;;;0.02;100.00
49311;BME280;35177;45.900;5.946;2022-12-18T05:51:14;98659.44;;;0.00;100.00
49311;BME280;35177;45.900;5.946;2022-12-18T05:53:40;98660.88;;;0.03;100.00
49311;BME280;35177;45.900;5.946;2022-12-18T05:56:08;98664.66;;;0.02;100.00
49311;BME280;35177;45.900;5.946;2022-12-18T05:58:33;98669.06;;;0.03;100.00
49311;BME280;35177;45.900;5.946;2022-12-18T06:01:05;98674.94;;;-0.01;100.00
49311;BME280;35177;45.900;5.946;2022-12-18T06:03:31;98673.69;;;0.02;100.00
49311;BME280;35177;45.900;5.946;2022-12-18T06:05:56;98675.56;;;0.02;100.00
49311;BME280;35177;45.900;5.946;2022-12-18T06:08:22;98679.97;;;0.03;100.00
49311;BME280;35177;45.900;5.946;2022-12-18T06:10:51;98683.13;;;-0.01;100.00
49311;BME280;35177;45.900;5.946;2022-12-18T06:13:17;98681.47;;;-0.02;100.00
49311;BME280;35177;45.900;5.946;2022-12-18T06:15:43;98689.22;;;0.02;100.00
49311;BME280;35177;45.900;5.946;2022-12-18T06:18:08;98690.28;;;0.01;100.00
49311;BME280;35177;45.900;5.946;2022-12-18T06:20:34;98697.84;;;-0.02;100.00
49311;BME280;35177;45.900;5.946;2022-12-18T06:23:01;98703.53;;;-0.03;100.00
49311;BME280;35177;45.900;5.946;2022-12-18T06:25:26;98711.94;;;-0.05;100.00
49311;BME280;35177;45.900;5.946;2022-12-18T06:27:52;98715.72;;;-0.06;100.00
49311;BME280;35177;45.900;5.946;2022-12-18T06:30:17;98715.06;;;-0.01;100.00
49311;BME280;35177;45.900;5.946;2022-12-18T06:32:42;98718.00;;;-0.03;100.00
49311;BME280;35177;45.900;5.946;2022-12-18T06:35:08;98718.38;;;0.01;100.00
49311;BME280;35177;45.900;5.946;2022-12-18T06:37:33;98727.66;;;0.00;100.00
49311;BME280;35177;45.900;5.946;2022-12-18T06:39:58;98721.41;;;-0.07;100.00
49311;BME280;35177;45.900;5.946;2022-12-18T06:42:24;98741.53;;;-0.08;100.00
49311;BME280;35177;45.900;5.946;2022-12-18T06:44:49;98739.41;;;0.01;100.00
49311;BME280;35177;45.900;5.946;2022-12-18T06:47:15;98737.53;;;-0.06;100.00
49311;BME280;35177;45.900;5.946;2022-12-18T06:49:40;98741.84;;;-0.30;100.00
49311;BME280;35177;45.900;5.946;2022-12-18T06:52:05;98739.13;;;-0.30;100.00
49311;BME280;35177;45.900;5.946;2022-12-18T06:54:31;98751.66;;;-0.22;100.00
49311;BME280;35177;45.900;5.946;2022-12-18T06:56:56;98744.69;;;-0.11;100.00
49311;BME280;35177;45.900;5.946;2022-12-18T06:59:21;98745.47;;;0.03;100.00
49311;BME280;35177;45.900;5.946;2022-12-18T07:01:46;98743.16;;;0.06;100.00
49311;BME280;35177;45.900;5.946;2022-12-18T07:04:12;98747.34;;;0.09;100.00
49311;BME280;35177;45.900;5.946;2022-12-18T07:06:37;98752.78;;;0.09;100.00
49311;BME280;35177;45.900;5.946;2022-12-18T07:09:02;98756.13;;;0.11;100.00
49311;BME280;35177;45.900;5.946;2022-12-18T07:11:28;98756.13;;;0.11;100.00
49311;BME280;35177;45.900;5.946;2022-12-18T07:13:53;98765.75;;;-0.25;100.00
49311;BME280;35177;45.900;5.946;2022-12-18T07:16:20;98763.59;;;-0.10;100.00
49311;BME280;35177;45.900;5.946;2022-12-18T07:18:45;98759.72;;;0.05;100.00
49311;BME280;35177;45.900;5.946;2022-12-18T07:21:12;98758.91;;;0.04;100.00
49311;BME280;35177;45.900;5.946;2022-12-18T07:23:38;98763.78;;;-0.05;100.00
49311;BME280;35177;45.900;5.946;2022-12-18T07:26:11;98760.94;;;-0.23;100.00
49311;BME280;35177;45.900;5.946;2022-12-18T07:28:38;98764.53;;;-0.29;100.00
49311;BME280;35177;45.900;5.946;2022-12-18T07:31:07;98766.28;;;-0.03;100.00
49311;BME280;35177;45.900;5.946;2022-12-18T07:33:34;98765.00;;;-0.01;100.00
49311;BME280;35177;45.900;5.946;2022-12-18T07:36:00;98772.94;;;0.08;100.00
49311;BME280;35177;45.900;5.946;2022-12-18T07:38:25;98776.97;;;-0.02;100.00
49311;BME280;35177;45.900;5.946;2022-12-18T07:40:50;98781.38;;;0.06;100.00
49311;BME280;35177;45.900;5.946;2022-12-18T07:43:15;98770.63;;;0.11;100.00
49311;BME280;35177;45.900;5.946;2022-12-18T07:45:41;98766.16;;;0.17;100.00
49311;BME280;35177;45.900;5.946;2022-12-18T07:48:07;98764.28;;;0.18;100.00
49311;BME280;35177;45.900;5.946;2022-12-18T07:50:32;98780.25;;;0.14;100.00
49311;BME280;35177;45.900;5.946;2022-12-18T07:52:57;98776.28;;;0.10;100.00
49311;BME280;35177;45.900;5.946;2022-12-18T07:55:23;98779.97;;;-0.10;100.00
49311;BME280;35177;45.900;5.946;2022-12-18T07:57:48;98783.06;;;0.01;100.00
49311;BME280;35177;45.900;5.946;2022-12-18T08:00:13;98779.53;;;-0.07;100.00
49311;BME280;35177;45.900;5.946;2022-12-18T08:02:39;98784.56;;;-0.10;100.00
49311;BME280;35177;45.900;5.946;2022-12-18T08:05:04;98788.16;;;-0.17;100.00
49311;BME280;35177;45.900;5.946;2022-12-18T08:07:30;98792.16;;;-0.19;100.00
49311;BME280;35177;45.900;5.946;2022-12-18T08:09:55;98788.34;;;-0.05;100.00
49311;BME280;35177;45.900;5.946;2022-12-18T08:12:20;98786.81;;;0.06;100.00
49311;BME280;35177;45.900;5.946;2022-12-18T08:14:45;98786.19;;;0.04;100.00
49311;BME280;35177;45.900;5.946;2022-12-18T08:17:11;98792.63;;;0.17;100.00
49311;BME280;35177;45.900;5.946;2022-12-18T08:19:36;98788.00;;;0.17;100.00
49311;BME280;35177;45.900;5.946;2022-12-18T08:22:02;98788.22;;;0.22;100.00
49311;BME280;35177;45.900;5.946;2022-12-18T08:24:27;98778.75;;;0.25;100.00
49311;BME280;35177;45.900;5.946;2022-12-18T08:26:52;98776.88;;;0.19;100.00
49311;BME280;35177;45.900;5.946;2022-12-18T08:29:18;98772.00;;;0.27;100.00
49311;BME280;35177;45.900;5.946;2022-12-18T08:31:43;98770.66;;;0.37;100.00
49311;BME280;35177;45.900;5.946;2022-12-18T08:34:08;98776.53;;;0.40;100.00
49311;BME280;35177;45.900;5.946;2022-12-18T08:36:34;98771.94;;;0.34;100.00
49311;BME280;35177;45.900;5.946;2022-12-18T08:38:59;98771.94;;;0.34;100.00
49311;BME280;35177;45.900;5.946;2022-12-18T08:41:24;98764.31;;;0.43;100.00
49311;BME280;35177;45.900;5.946;2022-12-18T08:43:50;98767.91;;;0.43;100.00
49311;BME280;35177;45.900;5.946;2022-12-18T08:46:35;98773.09;;;0.52;100.00
49311;BME280;35177;45.900;5.946;2022-12-18T08:49:01;98776.69;;;0.45;100.00
49311;BME280;35177;45.900;5.946;2022-12-18T08:51:26;98773.31;;;0.50;100.00
49311;BME280;35177;45.900;5.946;2022-12-18T08:53:52;98770.81;;;0.48;100.00
49311;BME280;35177;45.900;5.946;2022-12-18T08:56:17;98770.16;;;0.53;100.00
49311;BME280;35177;45.900;5.946;2022-12-18T08:58:42;98772.16;;;0.64;100.00
49311;BME280;35177;45.900;5.946;2022-12-18T09:01:09;98772.78;;;0.67;100.00
49311;BME280;35177;45.900;5.946;2022-12-18T09:03:34;98767.50;;;0.72;100.00
49311;BME280;35177;45.900;5.946;2022-12-18T09:06:00;98764.06;;;0.51;100.00
49311;BME280;35177;45.900;5.946;2022-12-18T09:08:25;98763.19;;;0.57;100.00
49311;BME280;35177;45.900;5.946;2022-12-18T09:10:51;98767.97;;;0.62;100.00
49311;BME280;35177;45.900;5.946;2022-12-18T09:13:16;98773.38;;;0.43;100.00
49311;BME280;35177;45.900;5.946;2022-12-18T09:18:08;98771.88;;;0.47;100.00
49311;BME280;35177;45.900;5.946;2022-12-18T09:20:34;98773.94;;;0.52;100.00
49311;BME280;35177;45.900;5.946;2022-12-18T09:22:59;98776.13;;;0.69;100.00
49311;BME280;35177;45.900;5.946;2022-12-18T09:25:25;98784.84;;;0.84;100.00
49311;BME280;35177;45.900;5.946;2022-12-18T09:27:50;98776.69;;;1.03;100.00
49311;BME280;35177;45.900;5.946;2022-12-18T09:30:15;98774.97;;;1.08;100.00
49311;BME280;35177;45.900;5.946;2022-12-18T09:32:41;98789.47;;;1.09;100.00
49311;BME280;35177;45.900;5.946;2022-12-18T09:35:06;98795.03;;;1.21;100.00
49311;BME280;35177;45.900;5.946;2022-12-18T09:37:31;98791.16;;;1.28;100.00
49311;BME280;35177;45.900;5.946;2022-12-18T09:39:57;98791.31;;;1.34;100.00
49311;BME280;35177;45.900;5.946;2022-12-18T09:42:22;98795.50;;;1.36;100.00
49311;BME280;35177;45.900;5.946;2022-12-18T09:44:52;98798.34;;;1.23;100.00
49311;BME280;35177;45.900;5.946;2022-12-18T09:47:19;98795.69;;;1.41;100.00
49311;BME280;35177;45.900;5.946;2022-12-18T09:49:46;98807.41;;;1.67;100.00
49311;BME280;35177;45.900;5.946;2022-12-18T09:52:33;98805.50;;;1.68;100.00
49311;BME280;35177;45.900;5.946;2022-12-18T09:57:29;98796.75;;;1.77;100.00
49311;BME280;35177;45.900;5.946;2022-12-18T10:00:02;98799.25;;;1.79;100.00
49311;BME280;35177;45.900;5.946;2022-12-18T10:02:29;98796.47;;;2.16;100.00
49311;BME280;35177;45.900;5.946;2022-12-18T10:12:52;98794.63;;;1.98;100.00
49311;BME280;35177;45.900;5.946;2022-12-18T10:17:56;98800.50;;;1.83;100.00
49311;BME280;35177;45.900;5.946;2022-12-18T10:20:32;98800.84;;;2.36;100.00
49311;BME280;35177;45.900;5.946;2022-12-18T10:25:29;98795.03;;;2.75;100.00
49311;BME280;35177;45.900;5.946;2022-12-18T10:28:00;98788.53;;;3.23;100.00
49311;BME280;35177;45.900;5.946;2022-12-18T10:30:32;98789.03;;;3.32;100.00
49311;BME280;35177;45.900;5.946;2022-12-18T10:33:00;98786.97;;;2.92;100.00
49311;BME280;35177;45.900;5.946;2022-12-18T10:35:26;98782.78;;;2.89;100.00
49311;BME280;35177;45.900;5.946;2022-12-18T10:38:02;98778.66;;;3.22;100.00
49311;BME280;35177;45.900;5.946;2022-12-18T10:40:28;98771.03;;;3.48;100.00
49311;BME280;35177;45.900;5.946;2022-12-18T10:43:13;98758.78;;;3.79;100.00
49311;BME280;35177;45.900;5.946;2022-12-18T10:45:39;98774.09;;;3.51;100.00
49311;BME280;35177;45.900;5.946;2022-12-18T10:48:04;98775.28;;;3.56;100.00
49311;BME280;35177;45.900;5.946;2022-12-18T10:50:42;98775.41;;;3.61;100.00
49311;BME280;35177;45.900;5.946;2022-12-18T10:53:13;98765.00;;;3.75;100.00
49311;BME280;35177;45.900;5.946;2022-12-18T10:55:44;98767.34;;;2.52;100.00
49311;BME280;35177;45.900;5.946;2022-12-18T11:03:30;98760.31;;;2.56;100.00
49311;BME280;35177;45.900;5.946;2022-12-18T11:06:06;98758.31;;;2.64;100.00
49311;BME280;35177;45.900;5.946;2022-12-18T11:08:32;98754.88;;;2.92;100.00
49311;BME280;35177;45.900;5.946;2022-12-18T11:10:58;98751.91;;;2.82;100.00
49311;BME280;35177;45.900;5.946;2022-12-18T11:13:24;98755.94;;;2.67;100.00
49311;BME280;35177;45.900;5.946;2022-12-18T11:15:50;98749.47;;;2.62;100.00
49311;BME280;35177;45.900;5.946;2022-12-18T11:18:34;98744.22;;;2.60;100.00
49311;BME280;35177;45.900;5.946;2022-12-18T11:23:25;98736.78;;;3.03;100.00
49311;BME280;35177;45.900;5.946;2022-12-18T11:25:52;98738.75;;;2.18;100.00
49311;BME280;35177;45.900;5.946;2022-12-18T11:28:28;98731.72;;;2.52;100.00
49311;BME280;35177;45.900;5.946;2022-12-18T11:33:35;98720.44;;;3.08;100.00
49311;BME280;35177;45.900;5.946;2022-12-18T11:36:01;98717.81;;;3.37;100.00
49311;BME280;35177;45.900;5.946;2022-12-18T11:38:29;98713.50;;;3.41;100.00
49311;BME280;35177;45.900;5.946;2022-12-18T11:40:58;98714.19;;;3.60;100.00
49311;BME280;35177;45.900;5.946;2022-12-18T11:43:27;98710.50;;;3.43;100.00
49311;BME280;35177;45.900;5.946;2022-12-18T11:45:55;98706.47;;;3.21;100.00
49311;BME280;35177;45.900;5.946;2022-12-18T11:48:22;98706.34;;;2.69;100.00
49311;BME280;35177;45.900;5.946;2022-12-18T11:50:56;98698.16;;;3.28;100.00
49311;BME280;35177;45.900;5.946;2022-12-18T11:53:22;98696.88;;;3.60;100.00
49311;BME280;35177;45.900;5.946;2022-12-18T11:55:50;98696.94;;;3.77;100.00
49311;BME280;35177;45.900;5.946;2022-12-18T12:01:01;98691.03;;;3.56;100.00
49311;BME280;35177;45.900;5.946;2022-12-18T12:06:14;98674.78;;;3.14;100.00
49311;BME280;35177;45.900;5.946;2022-12-18T12:16:27;98660.81;;;3.27;100.00
49311;BME280;35177;45.900;5.946;2022-12-18T12:24:05;98659.88;;;3.62;100.00
49311;BME280;35177;45.900;5.946;2022-12-18T12:26:49;98665.72;;;3.66;100.00
49311;BME280;35177;45.900;5.946;2022-12-18T12:34:22;98644.81;;;3.65;100.00
49311;BME280;35177;45.900;5.946;2022-12-18T12:36:59;98641.63;;;3.56;100.00
49311;BME280;35177;45.900;5.946;2022-12-18T12:39:32;98647.75;;;3.46;100.00
49311;BME280;35177;45.900;5.946;2022-12-18T12:41:59;98654.09;;;3.35;100.00
49311;BME280;35177;45.900;5.946;2022-12-18T12:44:44;98647.97;;;3.57;100.00
49311;BME280;35177;45.900;5.946;2022-12-18T12:47:16;98646.06;;;3.45;100.00
49311;BME280;35177;45.900;5.946;2022-12-18T12:49:43;98636.78;;;3.46;100.00
49311;BME280;35177;45.900;5.946;2022-12-18T12:52:14;98628.63;;;3.51;100.00
49311;BME280;35177;45.900;5.946;2022-12-18T12:54:40;98631.94;;;3.25;100.00
49311;BME280;35177;45.900;5.946;2022-12-18T12:57:15;98633.56;;;3.37;100.00
49311;BME280;35177;45.900;5.946;2022-12-18T13:02:32;98626.63;;;3.76;100.00
49311;BME280;35177;45.900;5.946;2022-12-18T13:05:02;98622.84;;;3.65;100.00
49311;BME280;35177;45.900;5.946;2022-12-18T13:07:33;98620.28;;;3.58;100.00
49311;BME280;35177;45.900;5.946;2022-12-18T13:12:54;98629.06;;;3.31;100.00
49311;BME280;35177;45.900;5.946;2022-12-18T13:15:24;98619.59;;;3.39;100.00
49311;BME280;35177;45.900;5.946;2022-12-18T13:18:32;98614.13;;;3.39;100.00
49311;BME280;35177;45.900;5.946;2022-12-18T13:25:48;98610.66;;;3.44;100.00
49311;BME280;35177;45.900;5.946;2022-12-18T13:28:14;98602.97;;;3.58;100.00
49311;BME280;35177;45.900;5.946;2022-12-18T13:45:50;98598.78;;;3.55;100.00
49311;BME280;35177;45.900;5.946;2022-12-18T13:48:24;98599.44;;;3.74;100.00
49311;BME280;35177;45.900;5.946;2022-12-18T13:50:52;98599.47;;;3.62;100.00
49311;BME280;35177;45.900;5.946;2022-12-18T13:53:20;98600.88;;;3.48;100.00
49311;BME280;35177;45.900;5.946;2022-12-18T13:55:48;98597.72;;;3.56;100.00
49311;BME280;35177;45.900;5.946;2022-12-18T13:58:14;98592.44;;;3.66;100.00
49311;BME280;35177;45.900;5.946;2022-12-18T14:00:42;98590.81;;;3.53;100.00
49311;BME280;35177;45.900;5.946;2022-12-18T14:03:16;98605.03;;;3.50;100.00
49311;BME280;35177;45.900;5.946;2022-12-18T14:05:43;98593.91;;;3.57;100.00
49311;BME280;35177;45.900;5.946;2022-12-18T14:08:13;98598.44;;;3.51;100.00
49311;BME280;35177;45.900;5.946;2022-12-18T14:10:42;98594.84;;;3.63;100.00
49311;BME280;35177;45.900;5.946;2022-12-18T14:13:09;98591.13;;;3.69;100.00
49311;BME280;35177;45.900;5.946;2022-12-18T14:15:38;98602.13;;;3.57;100.00
49311;BME280;35177;45.900;5.946;2022-12-18T14:20:52;98598.56;;;3.57;100.00
49311;BME280;35177;45.900;5.946;2022-12-18T14:25:55;98598.44;;;3.51;100.00
49311;BME280;35177;45.900;5.946;2022-12-18T14:28:21;98605.72;;;3.58;100.00
49311;BME280;35177;45.900;5.946;2022-12-18T14:30:51;98609.78;;;3.55;100.00
49311;BME280;35177;45.900;5.946;2022-12-18T14:33:17;98610.91;;;3.42;100.00
49311;BME280;35177;45.900;5.946;2022-12-18T14:35:56;98613.66;;;3.42;100.00
49311;BME280;35177;45.900;5.946;2022-12-18T14:43:25;98620.22;;;3.29;100.00
49311;BME280;35177;45.900;5.946;2022-12-18T14:45:51;98617.13;;;3.26;100.00
49311;BME280;35177;45.900;5.946;2022-12-18T14:48:17;98612.13;;;3.34;100.00
49311;BME280;35177;45.900;5.946;2022-12-18T14:50:44;98614.88;;;3.22;100.00
49311;BME280;35177;45.900;5.946;2022-12-18T14:56:13;98607.38;;;3.18;100.00